Time;durP1;ratioP1;P1;durP2;ratioP2;P2;SDS_P1;SDS_P2;PMS_P1;PMS_P2;Temp;Humidity;BMP_temperature;BMP_pressure;BME280_temperature;BME280_humidity;BME280_pressure;Samples;Min_cycle;Max_cycle;Signal;HPM_P1;HPM_P2
2022/04/01 00:00:47;;;;;;;25.83;7.55;;;;;;;15.04;57.94;98435.09;6274112;22;20361;-87
2022/04/01 00:03:13;;;;;;;30.63;7.80;;;;;;;15.04;57.77;98424.47;6274396;22;20420;-88
2022/04/01 00:05:39;;;;;;;21.17;7.50;;;;;;;15.69;57.93;98538.63;6274700;22;20354;-87
2022/04/01 00:08:05;;;;;;;21.83;6.80;;;;;;;15.71;57.90;98523.22;6276164;22;20000;-88
2022/04/01 00:10:30;;;;;;;20.63;7.18;;;;;;;15.50;57.70;98458.09;6274865;22;20002;-87
2022/04/01 00:12:56;;;;;;;20.58;7.03;;;;;;;15.87;57.63;98492.41;6275180;22;20010;-88
2022/04/01 00:15:22;;;;;;;23.42;7.57;;;;;;;15.33;57.44;98373.97;6276012;22;20025;-87
2022/04/01 00:17:47;;;;;;;32.75;9.18;;;;;;;15.25;57.19;98397.25;6274503;22;20003;-87
2022/04/01 00:20:13;;;;;;;27.55;8.15;;;;;;;15.43;57.56;98355.53;6273893;22;20057;-87
2022/04/01 00:22:40;;;;;;;28.40;8.73;;;;;;;14.94;57.24;98241.66;6274278;22;20004;-87
2022/04/01 00:25:06;;;;;;;27.10;8.40;;;;;;;15.14;56.98;98224.47;6275828;22;20437;-87
2022/04/01 00:27:31;;;;;;;27.35;9.35;;;;;;;15.68;56.89;98340.09;6274376;22;20074;-87
2022/04/01 00:29:57;;;;;;;33.85;9.30;;;;;;;15.16;56.88;98256.94;6274317;22;20007;-87
2022/04/01 00:32:23;;;;;;;32.72;9.80;;;;;;;15.42;56.70;98288.25;6274283;22;20000;-87
2022/04/01 00:34:49;;;;;;;29.85;9.20;;;;;;;15.78;56.29;98324.28;6274188;22;20007;-87
2022/04/01 00:37:15;;;;;;;34.80;9.73;;;;;;;15.95;56.69;98352.78;6274141;22;20003;-87
2022/04/01 00:39:40;;;;;;;26.10;8.57;;;;;;;13.54;56.44;97938.69;6273742;22;20023;-87
2022/04/01 00:42:06;;;;;;;35.53;10.10;;;;;;;15.30;56.34;98265.41;6274068;22;20445;-87
2022/04/01 00:44:35;;;;;;;26.67;10.02;;;;;;;15.51;56.46;98309.94;6274197;22;20010;-87
2022/04/01 00:47:04;;;;;;;40.53;10.45;;;;;;;15.64;56.14;98322.19;6274259;22;20030;-86
2022/04/01 00:49:29;;;;;;;24.92;9.77;;;;;;;15.96;56.51;98389.00;6275769;22;20330;-86
2022/04/01 00:51:57;;;;;;;28.30;10.13;;;;;;;14.89;56.18;98215.00;6276056;22;20069;-87
2022/04/01 00:54:23;;;;;;;30.38;10.00;;;;;;;15.62;56.53;98353.56;6274078;22;19995;-88
2022/04/01 00:56:49;;;;;;;42.05;11.18;;;;;;;14.96;56.72;98259.22;6274522;22;20523;-88
2022/04/01 00:59:15;;;;;;;32.58;9.23;;;;;;;15.51;56.62;98376.44;6274089;22;20094;-87
2022/04/01 01:01:44;;;;;;;36.15;11.43;;;;;;;15.74;56.69;98394.22;6273508;22;20035;-87
2022/04/01 01:04:14;;;;;;;35.85;10.80;;;;;;;15.77;56.46;98429.13;6272356;22;20075;-87
2022/04/01 01:06:45;;;;;;;35.42;10.35;;;;;;;14.99;56.87;98339.28;6274271;22;20409;-87
2022/04/01 01:09:12;;;;;;;42.03;10.10;;;;;;;15.74;56.93;98477.50;6272484;22;20000;-87
2022/04/01 01:11:38;;;;;;;39.92;11.68;;;;;;;15.73;56.79;98473.25;6272383;22;20409;-87
2022/04/01 01:14:08;;;;;;;42.03;12.00;;;;;;;14.44;56.66;98285.78;6272537;22;20033;-87
2022/04/01 01:16:35;;;;;;;34.58;10.75;;;;;;;14.80;56.59;98263.41;6272287;22;20000;-88
2022/04/01 01:19:03;;;;;;;36.97;11.15;;;;;;;15.72;56.10;98306.63;6272439;22;20004;-87
2022/04/01 01:21:30;;;;;;;38.83;10.65;;;;;;;14.94;55.87;98171.75;6272295;22;20082;-87
2022/04/01 01:24:03;;;;;;;45.78;11.43;;;;;;;15.18;55.45;98214.97;6272258;22;20384;-88
2022/04/01 01:26:30;;;;;;;35.13;10.25;;;;;;;15.14;54.88;98278.44;6272343;22;20003;-88
2022/04/01 01:28:57;;;;;;;41.40;12.07;;;;;;;14.90;55.01;98211.28;6272173;22;20003;-87
2022/04/01 01:31:23;;;;;;;38.83;10.45;;;;;;;15.12;54.74;98222.03;6272164;22;20023;-87
2022/04/01 01:33:50;;;;;;;35.28;10.43;;;;;;;15.93;54.23;98322.94;6272260;22;20173;-87
2022/04/01 01:36:15;;;;;;;42.83;11.00;;;;;;;15.20;53.91;98203.03;6272251;22;20042;-87
2022/04/01 01:38:41;;;;;;;38.67;10.63;;;;;;;15.85;53.74;98303.66;6272596;22;19999;-87
2022/04/01 01:41:06;;;;;;;40.17;11.75;;;;;;;15.47;53.80;98362.81;6273791;22;20024;-87
2022/04/01 01:43:32;;;;;;;36.90;10.90;;;;;;;15.12;53.82;98267.25;6273872;22;20023;-86
2022/04/01 01:45:58;;;;;;;35.47;10.13;;;;;;;15.37;53.51;98272.19;6272147;22;20015;-87
2022/04/01 01:48:23;;;;;;;37.03;9.95;;;;;;;15.47;53.69;98276.88;6273657;22;20022;-87
2022/04/01 01:56:17;;;;;;;36.53;9.88;;;;;;;15.95;53.40;98334.94;6273442;22;20010;-87
2022/04/01 01:58:43;;;;;;;37.60;9.80;;;;;;;15.79;53.69;98328.56;6271866;22;20000;-87
2022/04/01 02:01:09;;;;;;;39.13;11.48;;;;;;;15.33;53.23;98247.13;6216275;22;1286501;-87
2022/04/01 02:03:35;;;;;;;38.10;10.02;;;;;;;15.19;53.30;98203.28;6273149;22;20018;-87
2022/04/01 02:06:03;;;;;;;41.03;10.50;;;;;;;15.07;53.52;98165.31;6273310;22;20098;-86
2022/04/01 02:08:29;;;;;;;36.50;10.55;;;;;;;15.29;53.61;98250.50;6273462;22;20000;-87
2022/04/01 02:10:55;;;;;;;36.28;10.52;;;;;;;15.82;53.97;98312.13;6273124;22;20384;-86
2022/04/01 02:13:21;;;;;;;42.28;10.77;;;;;;;15.68;53.78;98304.69;6273253;22;20034;-87
2022/04/01 02:15:46;;;;;;;38.00;10.43;;;;;;;15.27;53.95;98261.38;6273378;22;20006;-87
2022/04/01 02:18:12;;;;;;;42.15;10.25;;;;;;;15.30;53.42;98258.25;6273266;22;20002;-86
2022/04/01 02:20:37;;;;;;;33.67;9.77;;;;;;;14.67;53.65;98234.47;6273306;22;20003;-87
2022/04/01 02:23:03;;;;;;;34.17;9.93;;;;;;;15.89;53.63;98389.16;6273424;22;20004;-87
2022/04/01 02:25:30;;;;;;;33.83;10.10;;;;;;;15.70;53.24;98338.00;6273755;22;20015;-86
2022/04/01 02:27:59;;;;;;;34.17;11.70;;;;;;;15.88;53.24;98367.03;6273268;22;20500;-87
2022/04/01 02:30:25;;;;;;;32.65;9.82;;;;;;;14.82;53.16;98150.53;6274655;22;19992;-87
2022/04/01 02:32:50;;;;;;;34.97;10.38;;;;;;;15.70;53.02;98302.59;6274668;22;20003;-87
2022/04/01 02:35:16;;;;;;;40.88;10.35;;;;;;;15.70;53.07;98287.44;6273138;22;20456;-87
2022/04/01 02:37:42;;;;;;;37.45;10.40;;;;;;;15.75;53.48;98295.50;6273289;22;20004;-86
2022/04/01 02:40:09;;;;;;;32.90;9.68;;;;;;;15.32;53.10;98226.09;6273019;22;20331;-86
2022/04/01 02:42:35;;;;;;;40.65;10.27;;;;;;;14.96;53.09;98164.34;6273212;22;20003;-87
2022/04/01 02:45:00;;;;;;;29.88;9.73;;;;;;;15.76;53.29;98293.66;6272763;22;20004;-86
2022/04/01 02:47:26;;;;;;;33.78;10.45;;;;;;;14.87;53.40;98144.53;6273025;22;20060;-87
2022/04/01 02:49:52;;;;;;;40.17;10.85;;;;;;;15.61;53.67;98272.91;6273294;22;19998;-86
2022/04/01 02:52:17;;;;;;;30.52;9.32;;;;;;;15.60;53.60;98265.16;6273244;22;20559;-87
2022/04/01 02:54:43;;;;;;;42.53;11.63;;;;;;;15.02;53.62;98197.94;6273190;22;20349;-86
2022/04/01 02:57:09;;;;;;;35.28;10.57;;;;;;;15.92;53.50;98346.06;6272995;22;20008;-86
2022/04/01 02:59:35;;;;;;;44.80;10.55;;;;;;;15.58;53.57;98254.75;6272870;22;20445;-87
2022/04/01 03:02:00;;;;;;;34.88;9.63;;;;;;;15.23;53.82;98253.06;6272967;22;20085;-87
2022/04/01 03:04:26;;;;;;;43.72;10.65;;;;;;;15.67;54.01;98298.56;6272902;22;20007;-87
2022/04/01 03:06:51;;;;;;;41.10;11.15;;;;;;;15.68;54.04;98321.47;6274838;22;19995;-86
2022/04/01 03:09:17;;;;;;;32.50;9.65;;;;;;;15.82;54.63;98346.72;6273045;22;19999;-87
2022/04/01 03:11:43;;;;;;;37.03;10.38;;;;;;;14.98;54.12;98218.06;6274785;22;20026;-87
2022/04/01 03:14:10;;;;;;;37.60;10.55;;;;;;;15.80;54.11;98351.47;6272966;22;20054;-86
2022/04/01 03:16:37;;;;;;;38.45;11.32;;;;;;;15.30;54.22;98257.44;6272608;22;20071;-87
2022/04/01 03:19:08;;;;;;;34.67;11.35;;;;;;;15.20;54.37;98258.06;6273138;22;20449;-87
2022/04/01 03:21:35;;;;;;;34.20;9.80;;;;;;;15.12;54.46;98205.28;6274413;22;20027;-88
2022/04/01 03:24:02;;;;;;;38.40;10.32;;;;;;;15.87;54.09;98303.41;6273399;22;19996;-86
2022/04/01 03:26:28;;;;;;;32.78;10.25;;;;;;;15.88;54.29;98326.31;6272558;22;20137;-86
2022/04/01 03:28:55;;;;;;;35.90;10.98;;;;;;;15.66;54.24;98270.34;6272604;22;20074;-86
2022/04/01 03:31:20;;;;;;;39.60;12.00;;;;;;;15.96;54.10;98296.63;6273181;22;19995;-86
2022/04/01 03:33:46;;;;;;;36.60;10.52;;;;;;;15.14;54.50;98188.06;6272867;22;20024;-87
2022/04/01 03:36:13;;;;;;;36.08;10.77;;;;;;;15.71;54.63;98273.09;6272704;22;20384;-87
2022/04/01 03:38:39;;;;;;;44.78;11.02;;;;;;;15.09;55.00;98192.47;6274317;22;20006;-87
2022/04/01 03:41:05;;;;;;;42.20;12.15;;;;;;;15.79;54.96;98290.50;6273755;22;20003;-87
2022/04/01 03:43:34;;;;;;;41.90;11.57;;;;;;;15.59;54.71;98243.06;6272459;22;20141;-87
2022/04/01 03:46:00;;;;;;;42.45;10.80;;;;;;;15.03;54.81;98212.84;6272759;22;19999;-86
2022/04/01 03:48:39;;;;;;;36.28;10.02;;;;;;;15.24;54.94;98214.00;6272522;22;19996;-87
2022/04/01 03:51:05;;;;;;;34.35;11.13;;;;;;;15.17;54.67;98200.06;6272403;22;19991;-88
2022/04/01 03:53:34;;;;;;;31.80;11.32;;;;;;;15.81;54.95;98299.84;6272405;22;19999;-88
2022/04/01 03:56:01;;;;;;;34.30;11.77;;;;;;;15.85;54.69;98294.84;6274327;22;19999;-86
2022/04/01 03:58:33;;;;;;;40.42;11.60;;;;;;;15.89;54.49;98311.97;6274615;22;20079;-87
2022/04/01 04:01:00;;;;;;;45.05;17.55;;;;;;;15.48;54.69;98281.97;6274239;22;20004;-86
2022/04/01 04:03:26;;;;;;;46.83;18.02;;;;;;;15.13;54.41;98207.72;6274702;22;20004;-87
2022/04/01 04:05:53;;;;;;;36.03;12.45;;;;;;;15.57;54.28;98272.56;6274551;22;20078;-86
2022/04/01 04:08:22;;;;;;;34.83;10.98;;;;;;;15.20;54.26;98215.53;6275272;22;20078;-86
2022/04/01 04:10:48;;;;;;;32.38;11.07;;;;;;;15.95;54.46;98307.53;6274212;22;19991;-86
2022/04/01 04:13:16;;;;;;;36.33;12.13;;;;;;;15.92;54.13;98316.00;6274303;22;20448;-86
2022/04/01 04:16:11;;;;;;;33.83;11.63;;;;;;;15.94;54.14;98316.56;6275976;22;19996;-85
2022/04/01 04:18:47;;;;;;;31.70;10.95;;;;;;;15.25;54.12;98211.09;6269860;22;19999;-87
2022/04/01 04:21:29;;;;;;;33.45;10.90;;;;;;;15.39;54.10;98240.84;6274451;22;20075;-86
2022/04/01 04:23:57;;;;;;;31.95;10.93;;;;;;;16.02;53.98;98313.47;6274322;22;20460;-86
2022/04/01 04:26:47;;;;;;;39.42;11.82;;;;;;;15.99;53.41;98309.44;6274147;22;20361;-86
2022/04/01 04:29:15;;;;;;;38.03;11.93;;;;;;;16.03;53.28;98297.28;6274233;22;20526;-86
2022/04/01 04:31:59;;;;;;;40.38;12.52;;;;;;;16.05;53.16;98302.34;6274232;22;20006;-87
2022/04/01 04:34:30;;;;;;;46.13;12.73;;;;;;;15.74;53.34;98258.50;6275651;22;19996;-87
2022/04/01 04:36:57;;;;;;;39.47;12.55;;;;;;;16.06;53.06;98302.09;6275587;22;20070;-86
2022/04/01 04:39:29;;;;;;;42.83;12.63;;;;;;;16.11;52.90;98312.03;6274379;22;20002;-86
2022/04/01 04:41:55;;;;;;;38.53;11.43;;;;;;;16.11;52.67;98322.69;6276119;22;20083;-86
2022/04/01 04:44:24;;;;;;;36.95;12.20;;;;;;;15.63;52.23;98222.13;6274188;22;20403;-88
2022/04/01 04:46:50;;;;;;;32.47;12.07;;;;;;;15.50;52.51;98224.00;6274121;22;19999;-85
2022/04/01 04:49:18;;;;;;;39.55;13.10;;;;;;;15.65;52.67;98236.81;6275826;22;20022;-86
2022/04/01 04:51:47;;;;;;;34.38;12.55;;;;;;;15.72;52.35;98245.44;6275489;22;20065;-86
2022/04/01 04:54:14;;;;;;;38.25;13.18;;;;;;;16.25;52.58;98292.00;6274348;22;20031;-86
2022/04/01 04:56:41;;;;;;;33.58;11.85;;;;;;;15.47;52.12;98191.75;6274502;22;20395;-86
2022/04/01 04:59:09;;;;;;;29.90;10.90;;;;;;;15.31;52.48;98184.59;6274167;22;20353;-87
2022/04/01 05:01:59;;;;;;;31.05;11.40;;;;;;;16.28;52.00;98296.81;6273882;22;20473;-86
2022/04/01 05:04:25;;;;;;;27.75;11.68;;;;;;;16.31;52.12;98301.66;6274544;22;20082;-86
2022/04/01 05:07:29;;;;;;;32.17;11.75;;;;;;;16.30;52.13;98284.06;6274169;22;20453;-86
2022/04/01 05:10:04;;;;;;;32.45;10.55;;;;;;;15.45;52.31;98165.41;6274351;22;20003;-86
2022/04/01 05:12:32;;;;;;;28.23;9.57;;;;;;;16.43;52.05;98297.06;6274587;22;19999;-87
2022/04/01 05:15:08;;;;;;;35.55;11.77;;;;;;;15.98;51.77;98220.00;6275915;22;20437;-87
2022/04/01 05:17:37;;;;;;;30.63;10.38;;;;;;;15.81;51.47;98172.13;6276076;22;20000;-86
2022/04/01 05:20:15;;;;;;;38.50;12.45;;;;;;;15.84;51.45;98162.84;6274759;22;20086;-86
2022/04/01 05:23:01;;;;;;;29.27;10.95;;;;;;;15.88;51.15;98170.09;6274381;22;20011;-86
2022/04/01 05:25:33;;;;;;;28.65;11.02;;;;;;;15.99;51.19;98194.97;6274898;22;20019;-86
2022/04/01 05:28:01;;;;;;;38.72;11.40;;;;;;;16.78;51.09;98275.41;6274179;22;20069;-85
2022/04/01 05:30:33;;;;;;;39.05;11.95;;;;;;;16.81;50.98;98290.91;6274939;22;19992;-85
2022/04/01 05:33:21;;;;;;;33.40;11.98;;;;;;;16.77;50.96;98284.47;6286896;22;19995;-84
2022/04/01 05:35:51;;;;;;;30.15;11.52;;;;;;;16.24;51.13;98193.69;6283639;22;20074;-84
2022/04/01 05:38:19;;;;;;;31.60;10.70;;;;;;;16.43;50.87;98221.66;6283286;22;20402;-85
2022/04/01 05:40:45;;;;;;;35.13;10.98;;;;;;;16.84;50.62;98292.28;6282603;22;20407;-87
2022/04/01 05:43:13;;;;;;;39.38;12.18;;;;;;;16.00;50.85;98161.19;6273259;22;20069;-86
2022/04/01 05:45:41;;;;;;;34.30;10.52;;;;;;;16.11;50.95;98193.00;6274015;22;20441;-87
2022/04/01 05:48:09;;;;;;;30.95;10.90;;;;;;;16.12;50.73;98209.78;6275790;22;20077;-87
2022/04/01 05:50:37;;;;;;;36.45;11.02;;;;;;;16.63;50.60;98285.06;6273575;22;20066;-88
2022/04/01 05:53:05;;;;;;;32.45;10.18;;;;;;;16.84;50.63;98284.28;6273600;22;20004;-87
2022/04/01 05:55:35;;;;;;;47.03;12.45;;;;;;;16.26;50.31;98157.78;6274809;22;20004;-86
2022/04/01 05:58:05;;;;;;;33.78;11.70;;;;;;;16.87;50.56;98298.97;6275048;22;19999;-86
2022/04/01 06:00:44;;;;;;;36.10;10.70;;;;;;;16.40;50.25;98214.16;6274788;22;20011;-87
2022/04/01 06:03:13;;;;;;;40.42;10.77;;;;;;;16.95;49.95;98267.34;6274022;22;20407;-87
2022/04/01 06:06:15;;;;;;;33.63;11.02;;;;;;;16.83;49.83;98250.69;6274628;22;20441;-86
2022/04/01 06:08:44;;;;;;;;;;;;;;;16.92;50.11;98281.16;6294841;22;19999;-87
2022/04/01 06:11:28;;;;;;;33.00;10.98;;;;;;;16.93;49.97;98263.31;6273777;22;20396;-87
2022/04/01 06:13:57;;;;;;;36.22;11.13;;;;;;;17.09;49.92;98268.59;6275739;22;20527;-86
2022/04/01 06:16:43;;;;;;;29.63;10.88;;;;;;;17.21;49.48;98291.63;6275416;22;20027;-86
2022/04/01 06:19:24;;;;;;;36.70;11.20;;;;;;;16.65;49.30;98203.00;6273810;22;20087;-86
2022/04/01 06:22:04;;;;;;;37.47;10.25;;;;;;;16.68;49.09;98189.22;6279487;22;20074;-84
2022/04/01 06:24:36;;;;;;;32.40;11.10;;;;;;;17.29;49.08;98277.84;6286142;22;20057;-85
2022/04/01 06:27:02;;;;;;;33.42;10.82;;;;;;;16.92;48.98;98214.50;6287841;22;20010;-85
2022/04/01 06:29:33;;;;;;;39.10;10.80;;;;;;;17.33;48.51;98285.09;6275633;22;20487;-87
2022/04/01 06:32:05;;;;;;;32.17;10.75;;;;;;;17.39;48.60;98257.41;6272637;22;20003;-87
2022/04/01 06:34:58;;;;;;;34.70;10.55;;;;;;;16.59;48.86;98153.38;6272986;22;20003;-87
2022/04/01 06:37:29;;;;;;;34.88;11.80;;;;;;;17.32;48.62;98242.66;6272911;22;20004;-87
2022/04/01 06:40:03;;;;;;;33.03;11.83;;;;;;;17.55;48.60;98261.00;6272388;22;20010;-87
2022/04/01 06:42:31;;;;;;;36.22;11.02;;;;;;;17.58;48.18;98259.69;6272677;22;20785;-86
2022/04/01 06:44:57;;;;;;;32.30;10.38;;;;;;;17.39;47.77;98244.06;6272591;22;20349;-86
2022/04/01 06:47:23;;;;;;;36.88;11.35;;;;;;;17.17;47.96;98207.84;6274025;22;20075;-86
2022/04/01 06:49:48;;;;;;;45.13;12.50;;;;;;;17.01;48.08;98164.22;6272681;22;20027;-87
2022/04/01 06:52:16;;;;;;;40.05;12.20;;;;;;;16.96;47.86;98174.81;6272749;22;20019;-87
2022/04/01 06:54:43;;;;;;;38.08;11.07;;;;;;;17.03;47.69;98189.56;6272228;22;20000;-88
2022/04/01 06:57:08;;;;;;;37.97;12.25;;;;;;;17.18;47.16;98209.47;6272858;22;20093;-87
2022/04/01 06:59:36;;;;;;;44.95;12.70;;;;;;;16.82;47.08;98121.13;6274216;22;20004;-87
2022/04/01 07:02:02;;;;;;;38.17;11.23;;;;;;;16.64;46.90;98090.28;6272438;22;20457;-88
2022/04/01 07:04:28;;;;;;;42.47;10.32;;;;;;;17.26;46.82;98174.31;6272655;22;20053;-88
2022/04/01 07:06:55;;;;;;;35.22;11.07;;;;;;;17.57;46.37;98234.88;6272463;22;20080;-88
2022/04/01 07:09:22;;;;;;;42.83;12.88;;;;;;;17.28;46.64;98170.34;6272432;22;20083;-88
2022/04/01 07:11:47;;;;;;;34.95;11.55;;;;;;;17.53;46.39;98177.72;6272455;22;19995;-88
2022/04/01 07:14:13;;;;;;;38.38;10.70;;;;;;;17.92;46.23;98231.72;6272114;22;20049;-88
2022/04/01 07:16:38;;;;;;;32.63;10.98;;;;;;;17.76;46.35;98187.25;6272373;22;20007;-87
2022/04/01 07:19:04;;;;;;;41.75;11.38;;;;;;;17.96;46.28;98222.13;6273892;22;20350;-87
2022/04/01 07:21:29;;;;;;;35.92;10.98;;;;;;;17.70;46.22;98175.75;6272177;22;20057;-87
2022/04/01 07:23:55;;;;;;;35.05;10.02;;;;;;;17.26;45.64;98107.63;6272376;22;19999;-87
2022/04/01 07:26:20;;;;;;;29.70;10.07;;;;;;;17.45;46.08;98133.66;6274436;22;20003;-88
2022/04/01 07:28:47;;;;;;;36.03;11.85;;;;;;;17.61;46.01;98136.41;6272450;22;20007;-87
2022/04/01 07:33:57;;;;;;;40.67;10.48;;;;;;;18.50;45.76;98210.34;6276539;22;20011;-88
2022/04/01 07:36:23;;;;;;;36.58;9.98;;;;;;;18.20;45.47;98150.38;6276243;22;20023;-87
2022/04/01 07:38:48;;;;;;;38.33;10.68;;;;;;;17.63;45.29;98059.56;6274333;22;20440;-87
2022/04/01 07:41:14;;;;;;;37.78;10.05;;;;;;;18.24;45.45;98156.00;6274827;22;20007;-88
2022/04/01 07:43:39;;;;;;;29.98;10.13;;;;;;;17.62;45.33;98034.72;6274257;22;20401;-87
2022/04/01 07:46:05;;;;;;;37.50;9.30;;;;;;;18.20;45.31;98133.56;6275918;22;20053;-85
2022/04/01 07:48:31;;;;;;;37.22;10.80;;;;;;;18.32;44.93;98153.63;6274465;22;20038;-86
2022/04/01 07:50:56;;;;;;;40.83;11.95;;;;;;;18.46;44.54;98175.34;6274926;22;20394;-86
2022/04/01 07:53:22;;;;;;;31.27;9.40;;;;;;;18.09;44.55;98077.44;6274322;22;20014;-85
2022/04/01 07:55:49;;;;;;;40.78;10.30;;;;;;;18.20;44.42;98086.28;6274395;22;20004;-86
2022/04/01 07:58:15;;;;;;;42.30;11.38;;;;;;;18.89;44.61;98182.19;6274158;22;20007;-86
2022/04/01 08:00:41;;;;;;;37.22;9.75;;;;;;;18.94;44.04;98186.75;6273855;22;20078;-85
2022/04/01 08:03:08;;;;;;;35.05;8.93;;;;;;;18.96;44.00;98192.63;6273254;22;20080;-86
2022/04/01 08:05:33;;;;;;;34.55;9.88;;;;;;;18.87;43.84;98162.94;6273917;22;20057;-86
2022/04/01 08:07:59;;;;;;;42.45;10.43;;;;;;;18.45;43.80;98084.72;6274098;22;20007;-86
2022/04/01 08:10:24;;;;;;;41.30;10.43;;;;;;;18.67;43.38;98109.41;6274307;22;19998;-86
2022/04/01 08:12:50;;;;;;;44.60;10.27;;;;;;;19.15;43.25;98179.53;6274065;22;20109;-88
2022/04/01 08:15:15;;;;;;;40.55;10.07;;;;;;;18.58;43.28;98095.75;6273577;22;19996;-87
2022/04/01 08:17:40;;;;;;;44.13;10.43;;;;;;;18.47;43.14;98071.91;6275832;22;20010;-87
2022/04/01 08:20:07;;;;;;;45.40;11.45;;;;;;;18.99;42.90;98130.56;6274065;22;20272;-85
2022/04/01 08:22:33;;;;;;;36.65;9.80;;;;;;;19.08;42.72;98150.38;6276115;22;20002;-85
2022/04/01 08:24:58;;;;;;;39.65;11.00;;;;;;;18.78;42.77;98111.03;6275792;22;19995;-85
2022/04/01 08:27:24;;;;;;;34.55;10.23;;;;;;;18.94;42.88;98093.94;6274185;22;20026;-87
2022/04/01 08:29:49;;;;;;;37.45;10.10;;;;;;;19.21;42.64;98106.22;6274374;22;20430;-87
2022/04/01 08:32:15;;;;;;;35.13;9.85;;;;;;;19.60;42.24;98154.69;6273659;22;20096;-86
2022/04/01 08:34:41;;;;;;;39.15;10.93;;;;;;;18.79;42.17;98051.13;6273944;22;20003;-86
2022/04/01 08:37:07;;;;;;;39.28;10.20;;;;;;;19.56;42.17;98173.16;6276001;22;20007;-87
2022/04/01 08:39:33;;;;;;;36.65;10.80;;;;;;;18.96;41.91;98030.28;6273994;22;19999;-86
2022/04/01 08:42:01;;;;;;;36.47;9.02;;;;;;;19.77;41.88;98157.06;6273362;22;20275;-87
2022/04/01 08:44:27;;;;;;;31.30;9.70;;;;;;;18.87;41.86;97989.09;6272722;22;20311;-85
2022/04/01 08:46:54;;;;;;;37.17;10.55;;;;;;;19.12;41.38;98027.56;6273602;22;20479;-87
2022/04/01 08:49:20;;;;;;;43.78;12.23;;;;;;;19.74;41.32;98112.06;6272419;22;20075;-86
2022/04/01 08:51:46;;;;;;;34.55;9.00;;;;;;;19.37;40.96;98019.53;6274958;22;20438;-85
2022/04/01 08:54:12;;;;;;;38.63;9.88;;;;;;;19.39;41.05;98021.94;6275612;22;20034;-85
2022/04/01 08:56:37;;;;;;;36.13;10.32;;;;;;;19.77;40.50;98053.41;6275662;22;20003;-86
2022/04/01 08:59:03;;;;;;;42.90;11.15;;;;;;;19.52;40.06;97992.72;6273860;22;19996;-85
2022/04/01 09:01:46;;;;;;;41.67;10.10;;;;;;;20.25;39.57;98102.00;6275319;22;20012;-85
2022/04/01 09:04:21;;;;;;;36.67;9.48;;;;;;;20.50;39.36;98115.28;6273965;22;20501;-86
2022/04/01 09:06:47;;;;;;;34.92;10.93;;;;;;;19.88;39.60;98046.94;6271543;22;20457;-86
2022/04/01 09:09:27;;;;;;;43.78;10.70;;;;;;;20.53;39.29;98105.88;6273874;22;20003;-85
2022/04/01 09:12:05;;;;;;;40.33;10.55;;;;;;;20.45;38.83;98144.81;6273287;22;20441;-86
2022/04/01 09:14:31;;;;;;;44.65;10.75;;;;;;;20.02;39.13;98055.19;6273276;22;20014;-86
2022/04/01 09:16:57;;;;;;;35.13;10.35;;;;;;;20.06;38.88;98047.41;6274955;22;19995;-86
2022/04/01 09:19:35;;;;;;;32.13;9.60;;;;;;;20.67;38.67;98143.63;6273628;22;20003;-87
2022/04/01 09:22:21;;;;;;;31.58;10.20;;;;;;;20.29;38.05;98041.41;6274172;22;20004;-85
2022/04/01 09:24:53;;;;;;;32.85;9.32;;;;;;;20.84;37.81;98103.84;6273672;22;19996;-86
2022/04/01 09:27:19;;;;;;;36.63;10.25;;;;;;;20.82;38.00;98098.75;6275108;22;19996;-86
2022/04/01 09:29:44;;;;;;;38.60;9.60;;;;;;;20.47;37.94;98000.56;6273449;22;20004;-85
2022/04/01 09:32:09;;;;;;;43.75;11.75;;;;;;;20.75;37.59;98028.50;6274980;22;20056;-85
2022/04/01 09:34:37;;;;;;;43.35;10.80;;;;;;;20.53;37.09;98055.75;6273290;22;20019;-85
2022/04/01 09:37:02;;;;;;;36.92;9.45;;;;;;;21.01;37.29;98034.47;6272882;22;20000;-85
2022/04/01 09:39:28;;;;;;;38.75;10.48;;;;;;;20.79;37.08;98023.38;6273437;22;20003;-86
2022/04/01 09:41:55;;;;;;;41.70;11.07;;;;;;;21.07;37.01;98054.81;6271980;22;19999;-85
2022/04/01 09:44:28;;;;;;;38.85;10.35;;;;;;;21.71;37.23;98102.03;6274501;22;20004;-85
2022/04/01 09:46:59;;;;;;;59.20;11.13;;;;;;;21.25;37.01;98105.13;6297680;22;20006;-87
2022/04/01 09:49:34;;;;;;;39.47;9.38;;;;;;;20.58;36.40;97945.75;6274955;22;20006;-87
2022/04/01 09:52:00;;;;;;;39.55;10.43;;;;;;;21.20;36.93;98070.25;6271076;22;19999;-86
2022/04/01 09:54:26;;;;;;;38.72;10.27;;;;;;;20.63;36.81;97955.66;6269685;22;20022;-87
2022/04/01 09:56:54;;;;;;;41.92;10.73;;;;;;;21.59;36.80;98072.06;6274458;22;19999;-90
2022/04/01 09:59:23;;;;;;;37.88;9.50;;;;;;;21.62;36.71;98076.88;6270921;22;20357;-89
2022/04/01 10:01:49;;;;;;;37.58;10.35;;;;;;;21.63;36.45;98058.88;6272617;22;20011;-88
2022/04/01 10:04:14;;;;;;;38.45;9.63;;;;;;;22.06;36.11;98106.22;6271345;22;20054;-86
2022/04/01 10:06:41;;;;;;;37.00;9.48;;;;;;;21.72;36.16;98028.41;6272422;22;20007;-86
2022/04/01 10:09:09;;;;;;;32.13;9.57;;;;;;;22.12;35.93;98020.94;6272329;22;20006;-88
2022/04/01 10:11:37;;;;;;;36.60;11.15;;;;;;;22.09;35.74;98000.81;6270553;22;19999;-86
2022/04/01 10:14:08;;;;;;;29.75;8.95;;;;;;;22.81;35.39;98097.44;6272997;22;19995;-87
2022/04/01 10:16:35;;;;;;;44.72;11.00;;;;;;;22.19;35.01;98032.91;6272917;22;20057;-87
2022/04/01 10:19:08;;;;;;;36.40;9.75;;;;;;;22.15;35.17;98010.38;6273074;22;20084;-87
2022/04/01 10:21:36;;;;;;;38.50;10.90;;;;;;;22.60;35.14;98013.50;6274926;22;20010;-88
2022/04/01 10:24:06;;;;;;;40.10;11.90;;;;;;;22.52;34.94;98041.88;6273036;22;20003;-86
2022/04/01 10:26:33;;;;;;;35.35;10.63;;;;;;;22.35;35.21;98011.22;6271808;22;20064;-86
2022/04/01 10:28:59;;;;;;;45.20;12.52;;;;;;;23.28;34.83;98107.19;6272286;22;20010;-86
2022/04/01 10:31:25;;;;;;;37.47;10.13;;;;;;;21.73;34.63;97825.84;6272354;22;20006;-86
2022/04/01 10:33:51;;;;;;;38.60;10.18;;;;;;;22.84;34.53;97991.88;6271677;22;20027;-86
2022/04/01 10:36:26;;;;;;;40.00;10.98;;;;;;;23.25;34.50;98080.06;6296986;22;19996;-87
2022/04/01 10:39:06;;;;;;;37.38;10.23;;;;;;;22.83;34.83;98031.47;6271256;22;20453;-88
2022/04/01 10:41:32;;;;;;;32.65;9.20;;;;;;;23.13;34.60;98080.53;6274039;22;20064;-89
2022/04/01 10:44:00;;;;;;;31.05;10.23;;;;;;;22.99;34.65;98034.69;6272247;22;20084;-87
2022/04/01 10:46:26;;;;;;;37.22;10.20;;;;;;;23.33;34.50;98047.03;6272281;22;20003;-88
2022/04/01 10:52:12;;;;;;;46.10;11.15;;;;;;;24.03;33.66;98034.13;6273311;22;20093;-88
2022/04/01 10:54:45;;;;;;;35.35;10.40;;;;;;;24.00;33.47;98033.91;6274833;22;19992;-87
2022/04/01 10:57:14;;;;;;;31.63;9.98;;;;;;;23.52;33.73;97947.28;6274546;22;20000;-87
2022/04/01 10:59:47;;;;;;;37.85;10.65;;;;;;;24.22;33.56;98017.78;6273582;22;20019;-86
2022/04/01 11:02:18;;;;;;;42.58;11.05;;;;;;;24.06;33.37;98000.34;6272494;22;20089;-86
2022/04/01 11:04:45;;;;;;;33.08;10.32;;;;;;;24.06;33.75;97984.97;6271367;22;20010;-88
2022/04/01 11:07:23;;;;;;;41.80;9.82;;;;;;;24.21;33.64;98026.97;6276603;22;19991;-89
2022/04/01 11:10:05;;;;;;;45.08;10.73;;;;;;;24.09;33.45;98057.19;6274828;22;19999;-89
2022/04/01 11:12:39;;;;;;;36.67;10.10;;;;;;;23.76;33.43;97967.53;6275263;22;20027;-86
2022/04/01 11:15:08;;;;;;;37.58;10.60;;;;;;;24.23;33.37;98057.16;6275703;22;20073;-88
2022/04/01 11:17:34;;;;;;;34.25;10.75;;;;;;;24.11;33.95;98054.19;6275464;22;19991;-89
2022/04/01 11:20:10;;;;;;;34.75;10.98;;;;;;;22.90;34.20;97901.09;6275125;22;20007;-91
2022/04/01 11:22:53;;;;;;;32.53;10.00;;;;;;;23.97;34.14;98048.00;6274172;22;20030;-89
2022/04/01 11:25:22;;;;;;;36.35;10.27;;;;;;;24.13;33.91;98053.88;6275455;22;20052;-88
2022/04/01 11:27:51;;;;;;;34.50;10.10;;;;;;;24.36;34.09;98066.34;6273937;22;20448;-89
2022/04/01 11:30:24;;;;;;;35.17;11.20;;;;;;;24.19;33.70;98013.00;6276497;22;19996;-88
2022/04/01 11:33:00;;;;;;;29.50;8.98;;;;;;;24.06;33.73;98020.03;6274935;22;20097;-89
2022/04/01 11:35:28;;;;;;;37.63;9.88;;;;;;;24.39;33.78;98076.53;6274834;22;20006;-89
2022/04/01 11:37:53;;;;;;;36.60;10.05;;;;;;;23.64;34.00;97963.75;6276214;22;20053;-87